Cochran, Georgia
Current Conditions -  °F | °C
As of 7:55 AM on Thursday 27 Nov 2014 (Local Time) from KEZM Reporting Station
Clear Clear  
Wind Chill:   Ceiling: Unl
Heat Index:   Visibility: 10mi
Dew Point:   Wind: 6mph
Humidity: 82%   Direction: 280°W
Pressure: 30.26"   Gusts: NA
Location:  32.39°N, 83.35°W
Report Text: KEZM 271255Z AUTO 28005KT 10SM CLR 06/03 A3026 RMK AO2 T00560027
Loading
Personal Weather Stations






























Interactive Weather Map New forecast layout! Learn more

10-Day Weather Forecast

Advertisements
Track Severe Weather on mobile